Time;durP1;ratioP1;P1;durP2;ratioP2;P2;SDS_P1;SDS_P2;PMS_P1;PMS_P2;Temp;Humidity;BMP_temperature;BMP_pressure;BME280_temperature;BME280_humidity;BME280_pressure;Samples;Min_cycle;Max_cycle;Signal;HPM_P1;HPM_P2
2022/02/26 00:02:24;;;;;;;7.90;3.67;;;5.20;99.90;;;;;;5035794;28;20432;-69
2022/02/26 00:04:50;;;;;;;5.20;3.50;;;5.10;99.90;;;;;;5036665;28;20175;-69
2022/02/26 00:07:16;;;;;;;6.53;3.50;;;5.10;99.90;;;;;;5036534;28;20491;-72
2022/02/26 00:09:42;;;;;;;10.63;4.30;;;5.10;99.90;;;;;;5041696;28;20409;-69
2022/02/26 00:12:08;;;;;;;5.67;3.80;;;5.10;99.90;;;;;;5032949;28;20345;-69
2022/02/26 00:14:34;;;;;;;6.00;3.70;;;5.10;99.90;;;;;;5034151;28;20611;-68
2022/02/26 00:16:59;;;;;;;8.10;3.60;;;5.10;99.90;;;;;;5036777;28;20785;-67
2022/02/26 00:19:25;;;;;;;4.07;2.93;;;5.10;99.90;;;;;;5036849;28;20773;-70
2022/02/26 00:21:51;;;;;;;6.00;3.73;;;5.20;99.90;;;;;;5037980;28;20171;-69
2022/02/26 00:24:17;;;;;;;4.23;3.47;;;5.30;99.90;;;;;;5039940;28;20185;-72
2022/02/26 00:26:43;;;;;;;6.70;3.57;;;5.20;99.90;;;;;;5031229;28;20175;-71
2022/02/26 00:29:09;;;;;;;5.67;3.13;;;5.30;99.90;;;;;;5035681;28;20460;-69
2022/02/26 00:31:35;;;;;;;8.07;3.60;;;5.30;99.90;;;;;;5036838;28;21010;-70
2022/02/26 00:34:00;;;;;;;4.93;3.53;;;5.30;99.90;;;;;;5036795;28;20180;-69
2022/02/26 00:36:26;;;;;;;7.27;4.07;;;5.40;99.90;;;;;;5035863;28;20282;-69
2022/02/26 00:38:52;;;;;;;9.10;3.43;;;5.30;99.90;;;;;;5033483;28;20464;-69
2022/02/26 00:41:18;;;;;;;6.57;3.90;;;5.50;99.90;;;;;;5040871;28;20180;-69
2022/02/26 00:43:44;;;;;;;5.37;3.50;;;5.60;99.90;;;;;;5041963;28;20942;-69
2022/02/26 00:46:10;;;;;;;5.10;2.90;;;5.60;99.90;;;;;;5031811;28;20262;-70
2022/02/26 00:51:21;;;;;;;6.10;4.20;;;5.50;99.90;;;;;;5033087;28;20751;-69
2022/02/26 00:53:47;;;;;;;12.90;4.60;;;5.30;99.90;;;;;;5033898;28;20872;-68
2022/02/26 00:56:13;;;;;;;12.20;4.03;;;5.40;99.90;;;;;;5036585;28;20945;-69
2022/02/26 00:58:38;;;;;;;8.67;3.83;;;5.40;99.90;;;;;;5037646;28;20570;-69
2022/02/26 01:01:04;;;;;;;4.13;3.27;;;5.50;99.90;;;;;;5037444;28;20297;-68
2022/02/26 01:03:29;;;;;;;7.83;3.63;;;5.50;99.90;;;;;;5038086;28;20168;-70
2022/02/26 01:05:55;;;;;;;4.57;3.40;;;5.50;99.90;;;;;;5032545;28;20214;-69
2022/02/26 01:08:21;;;;;;;6.50;3.57;;;5.50;99.90;;;;;;5036478;28;20329;-70
2022/02/26 01:10:47;;;;;;;9.13;4.10;;;5.50;99.90;;;;;;5036550;28;20543;-70
2022/02/26 01:13:12;;;;;;;7.20;3.80;;;5.50;99.90;;;;;;5037857;28;20178;-71
2022/02/26 01:15:38;;;;;;;6.57;3.70;;;5.50;99.90;;;;;;5032564;28;20796;-70
2022/02/26 01:18:04;;;;;;;6.80;4.00;;;5.50;99.90;;;;;;5036009;28;20203;-69
2022/02/26 01:20:29;;;;;;;6.63;3.73;;;5.40;99.90;;;;;;5038309;28;20233;-69
2022/02/26 01:22:55;;;;;;;8.40;4.37;;;5.40;99.90;;;;;;5033806;28;20179;-72
2022/02/26 01:25:21;;;;;;;5.27;3.50;;;5.40;99.90;;;;;;5040046;28;20659;-69
2022/02/26 01:27:46;;;;;;;5.87;3.80;;;5.40;99.90;;;;;;5036454;28;20477;-70
2022/02/26 01:30:12;;;;;;;14.20;4.43;;;5.40;99.90;;;;;;5030491;28;20187;-69
2022/02/26 01:32:41;;;;;;;6.80;4.57;;;5.50;99.90;;;;;;5037101;28;20672;-69
2022/02/26 01:35:07;;;;;;;10.27;4.57;;;5.50;99.90;;;;;;5034987;28;20713;-69
2022/02/26 01:37:33;;;;;;;4.30;3.93;;;5.50;99.90;;;;;;5034747;28;20438;-69
2022/02/26 01:39:59;;;;;;;8.93;4.43;;;5.60;99.90;;;;;;5038492;28;20414;-69
2022/02/26 01:42:24;;;;;;;8.77;4.37;;;5.50;99.90;;;;;;5038545;28;20171;-69
2022/02/26 01:44:52;;;;;;;6.57;3.73;;;5.40;99.90;;;;;;5034565;28;20179;-71
2022/02/26 01:47:17;;;;;;;6.93;3.47;;;5.40;99.90;;;;;;5035804;28;20222;-70
2022/02/26 01:49:43;;;;;;;8.27;4.27;;;5.20;99.90;;;;;;5036570;28;20409;-69
2022/02/26 01:52:09;;;;;;;8.30;4.37;;;5.10;99.90;;;;;;5037685;28;20673;-67
2022/02/26 01:54:37;;;;;;;5.90;3.93;;;5.20;99.90;;;;;;5033217;28;20422;-69
2022/02/26 01:57:04;;;;;;;5.60;3.80;;;5.30;99.90;;;;;;5034594;28;20416;-69
2022/02/26 01:59:30;;;;;;;8.87;3.80;;;5.40;99.90;;;;;;5031893;28;20414;-69
2022/02/26 02:01:55;;;;;;;6.87;4.27;;;5.40;99.90;;;;;;5034073;28;20768;-68
2022/02/26 02:04:21;;;;;;;5.40;3.60;;;5.50;99.90;;;;;;5035815;28;20189;-68
2022/02/26 02:06:47;;;;;;;6.50;4.70;;;5.40;99.90;;;;;;5034383;28;20186;-69
2022/02/26 02:09:12;;;;;;;4.50;3.60;;;5.40;99.90;;;;;;5036361;28;20182;-71
2022/02/26 02:11:38;;;;;;;5.33;3.50;;;5.20;99.90;;;;;;5035076;28;20179;-68
2022/02/26 02:14:05;;;;;;;5.70;3.83;;;5.10;99.90;;;;;;5030632;28;20179;-69
2022/02/26 02:16:31;;;;;;;6.60;5.00;;;5.20;99.90;;;;;;5038316;28;20484;-68
2022/02/26 02:18:56;;;;;;;7.67;4.23;;;5.20;99.90;;;;;;5035502;28;20960;-68
2022/02/26 02:21:22;;;;;;;7.50;3.83;;;5.20;99.90;;;;;;5027088;28;20171;-70
2022/02/26 02:23:49;;;;;;;7.77;4.50;;;5.10;99.90;;;;;;5033502;28;20174;-68
2022/02/26 02:26:17;;;;;;;8.10;4.00;;;5.10;99.90;;;;;;5033199;28;20427;-68
2022/02/26 02:28:43;;;;;;;5.53;4.33;;;5.20;99.90;;;;;;5035366;28;20479;-71
2022/02/26 02:31:08;;;;;;;5.50;4.40;;;5.20;99.90;;;;;;5037212;28;20412;-69
2022/02/26 02:33:43;;;;;;;7.83;3.93;;;5.20;99.90;;;;;;5034073;28;20183;-69
2022/02/26 02:36:09;;;;;;;7.30;5.03;;;5.20;99.90;;;;;;5033356;28;20194;-69
2022/02/26 02:38:35;;;;;;;7.33;3.90;;;5.20;99.90;;;;;;5033387;28;20963;-69
2022/02/26 02:41:01;;;;;;;9.40;5.10;;;5.10;99.90;;;;;;5034774;28;20190;-71
2022/02/26 02:43:26;;;;;;;9.23;4.50;;;5.20;99.90;;;;;;5035409;28;20778;-69
2022/02/26 02:45:52;;;;;;;7.07;3.80;;;5.30;99.90;;;;;;5034958;28;20356;-70
2022/02/26 02:48:18;;;;;;;8.90;4.73;;;5.10;99.90;;;;;;5036997;28;20276;-69
2022/02/26 02:50:43;;;;;;;10.00;4.83;;;5.00;99.90;;;;;;5035623;28;20266;-71
2022/02/26 02:53:09;;;;;;;7.43;4.50;;;5.10;99.90;;;;;;5032669;28;20243;-69
2022/02/26 02:55:35;;;;;;;6.70;4.93;;;5.30;99.90;;;;;;5033129;28;20571;-68
2022/02/26 02:58:01;;;;;;;7.87;4.30;;;5.20;99.90;;;;;;5029641;28;20199;-68
2022/02/26 03:00:28;;;;;;;6.60;4.80;;;5.20;99.90;;;;;;5034503;28;20167;-69
2022/02/26 03:02:54;;;;;;;8.83;5.17;;;5.10;99.90;;;;;;5034241;28;20417;-72
2022/02/26 03:05:21;;;;;;;12.10;6.10;;;5.10;99.90;;;;;;5037266;28;21618;-71
2022/02/26 03:07:47;;;;;;;9.60;5.57;;;5.10;99.90;;;;;;5035071;28;20822;-69
2022/02/26 03:10:13;;;;;;;8.90;5.33;;;5.10;99.90;;;;;;5035029;28;20414;-69
2022/02/26 03:12:39;;;;;;;13.93;6.23;;;5.00;99.90;;;;;;5032275;28;20427;-69
2022/02/26 03:15:05;;;;;;;15.83;6.53;;;4.80;99.90;;;;;;5034184;28;20202;-68
2022/02/26 03:17:31;;;;;;;11.27;6.10;;;4.90;99.90;;;;;;5033855;28;20202;-71
2022/02/26 03:19:57;;;;;;;8.20;6.10;;;4.90;99.90;;;;;;5039936;28;20463;-73
2022/02/26 03:22:22;;;;;;;11.87;6.10;;;5.10;99.90;;;;;;5028478;28;20175;-68
2022/02/26 03:24:48;;;;;;;12.03;6.47;;;5.00;99.90;;;;;;5034122;28;20618;-69
2022/02/26 03:27:14;;;;;;;11.13;6.90;;;5.20;99.90;;;;;;5033534;28;20196;-69
2022/02/26 03:29:40;;;;;;;10.93;6.13;;;5.10;99.90;;;;;;5033678;28;20410;-69
2022/02/26 03:32:07;;;;;;;10.10;6.30;;;5.20;99.90;;;;;;5036743;28;20257;-70
2022/02/26 03:34:34;;;;;;;9.40;5.93;;;5.40;99.90;;;;;;5027353;28;20512;-69
2022/02/26 03:36:59;;;;;;;7.43;6.17;;;5.20;99.90;;;;;;5032995;28;20463;-69
2022/02/26 03:39:31;;;;;;;16.70;7.20;;;5.30;99.90;;;;;;5032769;28;20830;-68
2022/02/26 03:41:58;;;;;;;14.30;7.57;;;5.30;99.90;;;;;;5033348;28;20165;-70
2022/02/26 03:44:24;;;;;;;10.20;6.77;;;5.30;99.90;;;;;;5042000;28;20420;-71
2022/02/26 03:46:49;;;;;;;8.50;6.67;;;5.10;99.90;;;;;;5030116;28;20909;-72
2022/02/26 03:49:15;;;;;;;10.27;7.07;;;5.10;99.90;;;;;;5029361;28;20237;-69
2022/02/26 03:51:40;;;;;;;13.50;7.20;;;5.20;99.90;;;;;;5027854;28;20190;-70
2022/02/26 03:54:06;;;;;;;11.03;6.97;;;5.20;99.90;;;;;;5038037;28;20652;-69
2022/02/26 03:56:32;;;;;;;10.67;6.40;;;5.20;99.90;;;;;;5035468;28;20577;-69
2022/02/26 03:58:57;;;;;;;6.67;5.93;;;5.20;99.90;;;;;;5035393;28;20216;-69
2022/02/26 04:01:23;;;;;;;10.93;7.23;;;5.10;99.90;;;;;;5033155;28;20175;-72
2022/02/26 04:03:50;;;;;;;10.40;6.40;;;5.10;99.90;;;;;;5036068;28;20214;-69
2022/02/26 04:06:16;;;;;;;13.20;7.00;;;5.10;99.90;;;;;;5035102;28;20417;-69
2022/02/26 04:08:42;;;;;;;14.23;7.00;;;5.10;99.90;;;;;;5035989;28;20499;-69
2022/02/26 04:11:08;;;;;;;8.83;6.97;;;5.10;99.90;;;;;;5033247;28;20524;-69
2022/02/26 04:13:35;;;;;;;12.07;8.33;;;5.10;99.90;;;;;;5032945;28;20405;-69
2022/02/26 04:16:01;;;;;;;13.20;8.10;;;5.00;99.90;;;;;;5036627;28;20500;-70
2022/02/26 04:18:27;;;;;;;8.83;6.70;;;4.90;99.90;;;;;;5031142;28;20908;-69
2022/02/26 04:20:53;;;;;;;12.00;7.57;;;5.00;99.90;;;;;;5031325;28;20420;-70
2022/02/26 04:23:18;;;;;;;11.07;7.50;;;4.90;99.90;;;;;;5041795;28;20230;-71
2022/02/26 04:25:44;;;;;;;10.57;6.40;;;4.80;99.90;;;;;;5041161;28;20679;-72
2022/02/26 04:28:09;;;;;;;17.37;6.60;;;4.90;99.90;;;;;;5034504;28;20611;-69
2022/02/26 04:30:37;;;;;;;9.53;6.73;;;5.00;99.90;;;;;;5036764;28;20192;-70
2022/02/26 04:33:04;;;;;;;18.03;8.40;;;4.80;99.90;;;;;;5037713;28;20191;-69
2022/02/26 04:35:29;;;;;;;10.53;7.30;;;4.60;99.90;;;;;;5035926;28;21033;-71
2022/02/26 04:37:55;;;;;;;9.87;6.53;;;4.60;99.90;;;;;;5035071;28;20441;-68
2022/02/26 04:40:21;;;;;;;14.33;7.47;;;4.70;99.90;;;;;;5038242;28;20655;-69
2022/02/26 04:42:46;;;;;;;9.33;6.60;;;4.90;99.90;;;;;;5035278;28;20209;-70
2022/02/26 04:45:12;;;;;;;11.43;7.60;;;5.00;99.90;;;;;;5040257;28;20210;-70
2022/02/26 04:47:39;;;;;;;11.50;6.77;;;5.00;99.90;;;;;;5035819;28;20214;-72
2022/02/26 04:50:07;;;;;;;17.00;7.33;;;5.10;99.90;;;;;;5038452;28;20531;-70
2022/02/26 04:52:33;;;;;;;10.60;7.97;;;5.10;99.90;;;;;;5032489;28;20597;-70
2022/02/26 04:54:58;;;;;;;11.00;6.43;;;5.00;99.90;;;;;;5036117;28;20461;-69
2022/02/26 04:57:24;;;;;;;16.57;8.17;;;4.90;99.90;;;;;;5039163;28;20202;-69
2022/02/26 04:59:49;;;;;;;11.43;7.37;;;4.60;99.90;;;;;;5031815;28;20187;-71
2022/02/26 05:02:15;;;;;;;9.57;6.73;;;4.60;99.90;;;;;;5034791;28;20262;-69
2022/02/26 05:04:41;;;;;;;13.63;8.10;;;4.80;99.90;;;;;;5036863;28;20843;-70
2022/02/26 05:07:06;;;;;;;14.43;7.80;;;4.80;99.90;;;;;;5037338;28;20252;-69
2022/02/26 05:09:32;;;;;;;11.67;6.40;;;5.00;99.90;;;;;;5036554;28;20182;-69
2022/02/26 05:11:57;;;;;;;13.33;6.63;;;4.90;99.90;;;;;;5037560;28;20186;-70
2022/02/26 05:14:24;;;;;;;9.23;7.83;;;4.90;99.90;;;;;;5037405;28;20581;-69
2022/02/26 05:16:49;;;;;;;14.53;8.33;;;4.90;99.90;;;;;;5035777;28;20560;-69
2022/02/26 05:19:15;;;;;;;18.07;8.70;;;5.00;99.90;;;;;;5038257;28;20406;-69
2022/02/26 05:21:40;;;;;;;8.30;7.40;;;5.10;99.90;;;;;;5039683;28;20170;-71
2022/02/26 05:24:06;;;;;;;12.00;7.30;;;5.20;99.90;;;;;;5036836;28;21064;-69
2022/02/26 05:26:32;;;;;;;12.43;7.83;;;5.20;99.90;;;;;;5034691;28;20186;-69
2022/02/26 05:28:57;;;;;;;12.00;8.33;;;5.20;99.90;;;;;;5035022;28;20573;-70
2022/02/26 05:31:23;;;;;;;10.90;7.40;;;5.00;99.90;;;;;;5036849;28;20183;-69
2022/02/26 05:33:49;;;;;;;12.67;7.00;;;4.80;99.90;;;;;;5037132;28;20206;-73
2022/02/26 05:36:15;;;;;;;11.73;6.93;;;4.70;99.90;;;;;;5036724;28;20194;-72
2022/02/26 05:38:40;;;;;;;12.33;7.60;;;4.90;99.90;;;;;;5040113;28;20956;-70
2022/02/26 05:41:07;;;;;;;15.50;7.93;;;5.10;99.90;;;;;;5038679;28;20257;-70
2022/02/26 05:43:34;;;;;;;13.90;8.37;;;5.30;99.90;;;;;;5035131;28;20179;-70
2022/02/26 05:45:59;;;;;;;22.20;8.23;;;5.30;99.90;;;;;;5039757;28;20405;-69
2022/02/26 05:48:25;;;;;;;10.20;7.27;;;5.20;99.90;;;;;;5038029;28;20826;-71
2022/02/26 05:50:51;;;;;;;10.40;6.83;;;5.30;99.90;;;;;;5037378;28;20759;-71
2022/02/26 05:53:16;;;;;;;15.30;7.20;;;5.40;99.90;;;;;;5036100;28;20631;-68
2022/02/26 05:55:42;;;;;;;12.13;8.07;;;5.50;99.90;;;;;;5034618;28;20682;-67
2022/02/26 05:58:07;;;;;;;12.40;7.40;;;5.40;99.90;;;;;;5034317;28;20208;-68
2022/02/26 06:00:33;;;;;;;12.83;7.60;;;5.30;99.90;;;;;;5036950;28;20186;-71
2022/02/26 06:02:58;;;;;;;12.00;8.37;;;5.20;99.90;;;;;;5035415;28;20186;-68
2022/02/26 06:05:24;;;;;;;12.90;9.57;;;5.30;99.90;;;;;;5038592;28;20207;-71
2022/02/26 06:07:50;;;;;;;14.53;8.40;;;5.50;99.90;;;;;;5037426;28;20203;-71
2022/02/26 06:10:15;;;;;;;13.00;8.23;;;5.60;99.90;;;;;;5036255;28;20282;-68
2022/02/26 06:12:41;;;;;;;11.97;8.63;;;5.60;99.90;;;;;;5038718;28;20175;-68
2022/02/26 06:15:07;;;;;;;11.30;8.30;;;5.50;99.90;;;;;;5033635;28;20233;-68
2022/02/26 06:17:32;;;;;;;12.87;7.77;;;5.40;99.90;;;;;;5033402;28;20202;-68
2022/02/26 06:19:58;;;;;;;14.70;8.50;;;5.20;99.90;;;;;;5034001;28;20849;-68
2022/02/26 06:22:24;;;;;;;14.23;8.97;;;5.30;99.90;;;;;;5034603;28;20517;-71
2022/02/26 06:24:50;;;;;;;14.07;8.80;;;5.20;99.90;;;;;;5034589;28;20182;-69
2022/02/26 06:27:15;;;;;;;11.73;8.77;;;5.30;99.90;;;;;;5034781;28;20461;-68
2022/02/26 06:29:41;;;;;;;14.70;9.07;;;5.00;99.90;;;;;;5036951;28;21281;-69
2022/02/26 06:32:07;;;;;;;12.30;8.50;;;5.00;99.90;;;;;;5034523;28;20248;-70
2022/02/26 06:34:33;;;;;;;19.67;8.87;;;5.00;99.90;;;;;;5038072;28;20183;-70
2022/02/26 06:36:58;;;;;;;12.77;8.17;;;5.10;99.90;;;;;;5033508;28;20453;-69
2022/02/26 06:39:24;;;;;;;18.27;8.87;;;4.80;99.90;;;;;;5037808;28;20466;-69
2022/02/26 06:41:50;;;;;;;13.87;8.80;;;4.90;99.90;;;;;;5036427;28;20185;-69
2022/02/26 06:44:15;;;;;;;15.63;9.47;;;5.00;99.90;;;;;;5035185;28;20184;-69
2022/02/26 06:46:43;;;;;;;8.60;7.70;;;5.00;99.90;;;;;;5034902;28;20241;-72
2022/02/26 06:49:09;;;;;;;17.80;8.90;;;5.10;99.90;;;;;;5035823;28;21215;-71
2022/02/26 06:51:35;;;;;;;12.70;8.50;;;5.30;99.90;;;;;;5033386;28;20463;-69
2022/02/26 06:54:01;;;;;;;16.50;9.30;;;5.20;99.90;;;;;;5034893;28;20199;-70
2022/02/26 06:56:27;;;;;;;14.90;9.97;;;5.10;99.90;;;;;;5032333;28;20252;-72
2022/02/26 06:58:54;;;;;;;12.70;8.77;;;5.10;99.90;;;;;;5030323;28;20429;-72
2022/02/26 07:01:20;;;;;;;14.67;8.17;;;4.90;99.90;;;;;;5034432;28;20441;-74
2022/02/26 07:03:45;;;;;;;13.47;8.30;;;5.00;99.90;;;;;;5035089;28;20439;-70
2022/02/26 07:06:11;;;;;;;13.70;8.77;;;5.20;99.90;;;;;;5037023;28;20933;-71
2022/02/26 07:08:37;;;;;;;13.03;8.00;;;5.00;99.90;;;;;;5033781;28;20241;-68
2022/02/26 07:11:02;;;;;;;14.87;8.73;;;5.00;99.90;;;;;;5032694;28;20208;-71
2022/02/26 07:13:29;;;;;;;12.80;8.60;;;5.10;99.90;;;;;;5033753;28;20206;-71
2022/02/26 07:15:55;;;;;;;13.87;8.20;;;5.30;99.90;;;;;;5036892;28;20255;-71
2022/02/26 07:18:20;;;;;;;16.40;8.60;;;5.30;99.90;;;;;;5037014;28;20947;-70
2022/02/26 07:20:46;;;;;;;15.87;8.60;;;5.50;99.90;;;;;;5037402;28;20186;-73
2022/02/26 07:23:12;;;;;;;17.20;9.57;;;5.50;99.90;;;;;;5041553;28;20221;-70
2022/02/26 07:25:37;;;;;;;11.10;8.27;;;5.60;99.90;;;;;;5031658;28;20613;-70
2022/02/26 07:28:03;;;;;;;11.83;8.80;;;5.80;99.90;;;;;;5023811;28;20195;-70
2022/02/26 07:30:29;;;;;;;12.37;8.70;;;5.70;99.90;;;;;;5024007;28;20262;-70
2022/02/26 07:32:55;;;;;;;13.53;8.80;;;5.50;99.90;;;;;;5031810;28;20462;-73
2022/02/26 07:35:21;;;;;;;14.73;10.03;;;5.40;99.90;;;;;;5034731;28;20190;-71
2022/02/26 07:37:46;;;;;;;14.67;8.47;;;5.60;99.90;;;;;;5022253;28;20429;-69
2022/02/26 07:40:13;;;;;;;12.30;8.73;;;5.60;99.90;;;;;;5023824;28;20254;-71
2022/02/26 07:42:39;;;;;;;16.93;9.43;;;5.40;99.90;;;;;;5039114;28;20167;-69
2022/02/26 07:45:05;;;;;;;13.30;8.77;;;5.20;99.90;;;;;;5023727;28;21537;-72
2022/02/26 07:47:32;;;;;;;12.53;9.07;;;5.40;99.90;;;;;;5033810;28;20463;-69
2022/02/26 07:49:57;;;;;;;15.53;9.00;;;5.60;99.90;;;;;;5043171;28;20420;-70
2022/02/26 07:52:23;;;;;;;18.40;11.00;;;5.50;99.90;;;;;;5031673;28;20472;-74
2022/02/26 07:54:52;;;;;;;15.87;9.17;;;5.40;99.90;;;;;;5023561;28;20179;-68
2022/02/26 07:57:18;;;;;;;15.67;9.40;;;5.50;99.90;;;;;;5031497;28;20560;-72
2022/02/26 07:59:44;;;;;;;14.97;9.23;;;5.30;99.90;;;;;;5044390;28;20401;-69
2022/02/26 08:02:10;;;;;;;18.53;9.10;;;5.30;99.90;;;;;;5047116;28;20558;-68
2022/02/26 08:04:37;;;;;;;13.63;8.40;;;5.10;99.90;;;;;;5038436;28;20175;-70
2022/02/26 08:07:04;;;;;;;14.37;8.43;;;5.00;99.90;;;;;;5040614;28;20420;-69
2022/02/26 08:09:30;;;;;;;13.00;9.27;;;5.40;99.90;;;;;;5032544;28;20423;-69
2022/02/26 08:11:56;;;;;;;13.43;9.27;;;5.60;99.90;;;;;;5026072;28;20449;-70
2022/02/26 08:14:22;;;;;;;11.63;9.60;;;5.50;99.90;;;;;;5037554;28;20508;-69
2022/02/26 08:16:47;;;;;;;15.57;10.07;;;5.40;99.90;;;;;;5036769;28;20922;-69
2022/02/26 08:19:13;;;;;;;15.10;10.40;;;5.50;99.90;;;;;;5027045;28;20187;-71
2022/02/26 08:21:39;;;;;;;12.13;9.73;;;5.50;99.90;;;;;;5040619;28;20175;-71
2022/02/26 08:24:05;;;;;;;12.00;9.43;;;5.50;99.90;;;;;;5044255;28;20651;-69
2022/02/26 08:26:32;;;;;;;17.27;9.70;;;5.60;99.90;;;;;;5031018;28;20585;-69
2022/02/26 08:28:58;;;;;;;12.63;9.17;;;5.40;99.90;;;;;;5035734;28;20572;-70
2022/02/26 08:31:24;;;;;;;12.20;8.90;;;5.60;99.90;;;;;;5035754;28;20508;-69
2022/02/26 08:33:50;;;;;;;13.13;8.90;;;5.90;99.90;;;;;;5039197;28;20531;-69
2022/02/26 08:36:16;;;;;;;17.20;10.10;;;5.70;99.90;;;;;;5035983;28;20457;-69
2022/02/26 08:38:41;;;;;;;18.00;9.53;;;5.70;99.90;;;;;;5032008;28;20291;-70
2022/02/26 08:41:07;;;;;;;16.47;10.27;;;5.70;99.90;;;;;;5039199;28;20763;-70
2022/02/26 08:43:33;;;;;;;11.27;9.40;;;6.00;99.90;;;;;;5030808;28;20267;-74
2022/02/26 08:45:58;;;;;;;14.00;9.70;;;6.20;99.90;;;;;;5040895;22;20274;-70
2022/02/26 08:48:24;;;;;;;15.00;8.50;;;6.50;99.90;;;;;;5024764;28;20436;-68
2022/02/26 08:50:50;;;;;;;14.67;8.60;;;6.60;99.90;;;;;;5025474;28;20219;-70
2022/02/26 08:53:16;;;;;;;11.20;8.57;;;6.60;99.90;;;;;;5029982;28;20485;-71
2022/02/26 08:55:41;;;;;;;13.50;9.33;;;6.30;99.90;;;;;;5027577;28;21053;-71
2022/02/26 08:58:07;;;;;;;13.13;7.97;;;6.10;99.90;;;;;;5032314;28;20171;-71
2022/02/26 09:00:32;;;;;;;14.40;8.80;;;6.20;99.90;;;;;;5032856;28;20175;-70
2022/02/26 09:02:58;;;;;;;22.30;9.80;;;6.30;99.90;;;;;;5032394;28;20191;-72
2022/02/26 09:05:24;;;;;;;13.27;8.67;;;6.50;99.90;;;;;;5033261;28;20206;-71
2022/02/26 09:07:50;;;;;;;15.97;9.83;;;6.40;99.90;;;;;;5031353;28;20417;-71
2022/02/26 09:10:15;;;;;;;16.53;8.87;;;6.50;99.90;;;;;;5032595;28;20190;-70
2022/02/26 09:12:42;;;;;;;13.87;7.77;;;6.40;99.90;;;;;;5033670;28;20276;-71
2022/02/26 09:15:08;;;;;;;17.20;8.57;;;6.30;99.90;;;;;;5031545;28;20221;-69
2022/02/26 09:17:33;;;;;;;13.13;8.67;;;6.20;99.90;;;;;;5032218;28;20422;-70
2022/02/26 09:19:59;;;;;;;13.70;8.33;;;6.50;99.90;;;;;;5032199;28;21510;-69
2022/02/26 09:22:24;;;;;;;13.60;8.60;;;6.30;99.90;;;;;;5029056;28;20634;-70
2022/02/26 09:24:50;;;;;;;10.13;8.13;;;6.20;99.90;;;;;;5030771;28;20198;-70
2022/02/26 09:27:16;;;;;;;9.53;8.27;;;6.60;99.90;;;;;;5032916;28;20202;-71
2022/02/26 09:29:42;;;;;;;9.53;6.03;;;6.50;99.90;;;;;;5033849;28;20242;-70
2022/02/26 09:32:08;;;;;;;13.67;8.10;;;6.50;99.90;;;;;;5033582;28;20214;-71
2022/02/26 09:34:34;;;;;;;12.30;8.73;;;6.50;99.90;;;;;;5033467;28;20417;-71
2022/02/26 09:37:00;;;;;;;11.27;7.17;;;6.50;99.90;;;;;;5032794;28;20457;-71
2022/02/26 09:39:25;;;;;;;13.60;7.17;;;6.50;99.90;;;;;;5032895;28;20258;-71
2022/02/26 09:41:55;;;;;;;9.60;7.73;;;6.50;99.90;;;;;;5034392;28;20190;-71
2022/02/26 09:44:21;;;;;;;10.40;8.10;;;6.10;99.90;;;;;;5029559;28;20175;-71
2022/02/26 09:46:48;;;;;;;15.83;8.20;;;6.20;99.90;;;;;;5027304;28;21473;-70
2022/02/26 09:49:13;;;;;;;11.97;8.00;;;6.50;99.90;;;;;;5029082;28;20652;-71
2022/02/26 09:51:41;;;;;;;13.20;8.07;;;6.90;99.90;;;;;;5028252;28;20536;-73
2022/02/26 09:54:07;;;;;;;11.40;7.50;;;6.90;99.90;;;;;;5026760;28;20233;-71
2022/02/26 09:56:32;;;;;;;12.33;7.27;;;6.80;99.90;;;;;;5026513;28;20892;-71
2022/02/26 09:58:58;;;;;;;10.93;6.20;;;7.00;99.90;;;;;;5026117;28;20388;-71
2022/02/26 10:01:24;;;;;;;7.93;4.07;;;7.30;99.90;;;;;;5027774;28;20954;-71
2022/02/26 10:03:49;;;;;;;5.53;2.17;;;7.30;99.90;;;;;;5026670;28;20202;-71
2022/02/26 10:06:18;;;;;;;4.33;2.57;;;7.30;99.30;;;;;;5026943;28;20207;-71
2022/02/26 10:08:45;;;;;;;5.40;2.40;;;7.20;97.10;;;;;;5028569;28;20187;-65
2022/02/26 10:11:28;;;;;;;7.67;2.90;;;6.60;98.60;;;;;;5029046;28;20430;-68
2022/02/26 10:14:10;;;;;;;6.47;2.47;;;6.60;98.60;;;;;;5027902;28;20421;-66
2022/02/26 10:16:59;;;;;;;7.47;2.43;;;6.90;99.60;;;;;;5026745;28;20462;-66
2022/02/26 10:19:32;;;;;;;4.60;2.33;;;7.30;98.30;;;;;;5026694;28;20474;-66
2022/02/26 10:22:08;;;;;;;3.07;2.00;;;7.10;98.00;;;;;;5027109;28;20632;-68
2022/02/26 10:24:36;;;;;;;4.07;2.10;;;7.20;97.20;;;;;;5026131;28;20893;-67
2022/02/26 10:27:06;;;;;;;7.00;1.90;;;7.10;96.30;;;;;;5027388;28;20434;-66
2022/02/26 10:29:36;;;;;;;6.03;2.37;;;7.10;96.40;;;;;;5026497;28;20422;-68
2022/02/26 10:32:04;;;;;;;5.90;2.30;;;7.30;96.00;;;;;;5026972;28;20410;-68
2022/02/26 10:34:38;;;;;;;4.90;2.40;;;7.50;95.60;;;;;;5026880;28;20847;-68
2022/02/26 10:37:07;;;;;;;3.90;1.80;;;7.70;95.00;;;;;;5026793;28;20469;-68
2022/02/26 10:39:37;;;;;;;6.10;2.37;;;7.50;94.80;;;;;;5024571;28;20423;-67
2022/02/26 10:42:06;;;;;;;8.80;3.10;;;7.80;94.80;;;;;;5026628;28;20927;-66
2022/02/26 10:44:32;;;;;;;7.60;2.90;;;8.00;94.10;;;;;;5026206;28;20531;-69
2022/02/26 10:47:10;;;;;;;7.37;2.80;;;8.20;95.00;;;;;;5026250;28;20494;-70
2022/02/26 10:49:46;;;;;;;6.70;2.40;;;8.00;94.80;;;;;;5024879;28;20440;-68
2022/02/26 10:52:14;;;;;;;10.43;3.30;;;8.00;95.00;;;;;;5026072;28;20419;-67
2022/02/26 10:54:41;;;;;;;6.53;3.10;;;7.90;94.60;;;;;;5025606;28;20813;-69
2022/02/26 10:57:10;;;;;;;5.37;2.80;;;8.00;94.80;;;;;;5025654;28;20617;-68
2022/02/26 10:59:41;;;;;;;7.73;3.50;;;7.90;95.20;;;;;;5026016;28;20419;-69
2022/02/26 11:02:16;;;;;;;5.40;2.90;;;7.30;95.70;;;;;;5026525;28;20479;-66
2022/02/26 11:04:41;;;;;;;9.53;3.53;;;7.60;96.30;;;;;;5026206;28;20473;-67
2022/02/26 11:07:10;;;;;;;5.53;3.50;;;7.30;97.50;;;;;;5026096;28;20517;-69
2022/02/26 11:09:40;;;;;;;10.23;3.67;;;7.40;98.20;;;;;;5024567;28;20184;-67
2022/02/26 11:12:06;;;;;;;7.90;3.77;;;7.30;97.40;;;;;;5027120;28;20414;-66
2022/02/26 11:14:35;;;;;;;8.93;3.97;;;6.60;98.90;;;;;;5026246;28;20529;-69
2022/02/26 11:17:03;;;;;;;6.13;4.20;;;6.90;99.10;;;;;;5025969;28;20465;-69
2022/02/26 11:19:30;;;;;;;8.27;3.73;;;6.90;98.60;;;;;;5025828;28;20442;-68
2022/02/26 11:21:58;;;;;;;8.07;3.70;;;7.00;99.00;;;;;;5025816;28;20418;-67
2022/02/26 11:24:23;;;;;;;8.00;3.67;;;7.30;99.10;;;;;;5025569;28;20453;-68
2022/02/26 11:26:50;;;;;;;10.13;4.50;;;7.10;98.70;;;;;;5026493;28;20501;-68
2022/02/26 11:29:19;;;;;;;8.47;3.53;;;6.90;99.00;;;;;;5026356;28;20547;-68
2022/02/26 11:32:02;;;;;;;9.73;4.47;;;6.70;99.30;;;;;;5025401;28;20477;-68
2022/02/26 11:34:28;;;;;;;8.90;3.40;;;6.70;99.50;;;;;;5024623;28;20491;-68
2022/02/26 11:37:02;;;;;;;6.50;3.97;;;6.60;99.40;;;;;;5026275;28;20466;-66
2022/02/26 11:39:29;;;;;;;7.40;3.83;;;6.70;99.10;;;;;;5026358;28;21137;-70
2022/02/26 11:42:27;;;;;;;10.37;4.10;;;7.10;98.80;;;;;;5025938;28;20464;-67
2022/02/26 11:44:59;;;;;;;8.10;3.30;;;8.00;98.60;;;;;;5024771;28;20432;-67
2022/02/26 11:47:36;;;;;;;7.40;2.93;;;9.70;93.60;;;;;;5024969;28;20422;-69
2022/02/26 11:50:07;;;;;;;6.67;4.27;;;10.70;90.40;;;;;;5024728;28;20406;-67
2022/02/26 11:52:47;;;;;;;7.43;3.40;;;10.80;88.70;;;;;;5024469;28;20410;-68
2022/02/26 11:55:22;;;;;;;6.90;2.83;;;11.70;86.90;;;;;;5024655;28;20463;-68
2022/02/26 11:57:48;;;;;;;6.63;3.63;;;12.60;83.50;;;;;;5024972;28;20426;-67
2022/02/26 12:00:16;;;;;;;5.67;3.23;;;11.70;83.40;;;;;;5024855;28;20774;-69
2022/02/26 12:02:42;;;;;;;8.67;3.07;;;10.70;85.40;;;;;;5025252;28;20414;-67
2022/02/26 12:05:09;;;;;;;5.57;3.20;;;10.50;86.70;;;;;;5025116;28;20954;-68
2022/02/26 12:07:41;;;;;;;5.93;3.13;;;9.00;89.40;;;;;;5025240;28;20542;-68
2022/02/26 12:10:12;;;;;;;7.00;2.60;;;8.60;91.30;;;;;;5025683;28;20845;-67
2022/02/26 12:12:40;;;;;;;5.40;3.20;;;8.80;91.30;;;;;;5025759;28;20928;-67
2022/02/26 12:15:29;;;;;;;9.23;3.30;;;8.50;91.80;;;;;;5025177;28;20429;-67
2022/02/26 12:17:54;;;;;;;5.57;2.77;;;8.30;92.00;;;;;;5024815;28;20411;-68
2022/02/26 12:20:29;;;;;;;9.00;3.37;;;7.90;92.20;;;;;;5024151;28;20438;-68
2022/02/26 12:23:09;;;;;;;6.50;2.37;;;7.60;92.00;;;;;;5025894;28;20182;-67
2022/02/26 12:25:38;;;;;;;9.27;2.97;;;7.50;92.50;;;;;;5025911;28;20497;-67
2022/02/26 12:28:11;;;;;;;11.23;3.90;;;7.80;93.00;;;;;;5025572;28;20896;-68
2022/02/26 12:31:05;;;;;;;12.07;3.00;;;8.10;92.80;;;;;;5025642;28;20437;-67
2022/02/26 12:33:42;;;;;;;5.20;2.67;;;7.80;92.60;;;;;;5025134;28;20940;-68
2022/02/26 12:36:11;;;;;;;5.77;2.40;;;8.40;92.60;;;;;;5024676;28;20851;-66
2022/02/26 12:38:49;;;;;;;5.60;3.00;;;10.90;90.00;;;;;;5024403;28;20414;-65
2022/02/26 12:41:31;;;;;;;6.63;2.90;;;13.00;80.70;;;;;;5025819;28;20405;-69
2022/02/26 12:43:58;;;;;;;9.53;3.13;;;11.70;80.60;;;;;;5028073;28;20456;-68
2022/02/26 12:46:31;;;;;;;7.53;2.70;;;10.70;84.20;;;;;;5027713;28;20529;-69
2022/02/26 12:49:00;;;;;;;4.63;2.63;;;9.90;85.40;;;;;;5027820;28;20417;-66
2022/02/26 12:51:32;;;;;;;5.60;2.97;;;9.60;87.50;;;;;;5028729;28;20471;-69
2022/02/26 12:53:57;;;;;;;6.37;2.40;;;9.40;88.20;;;;;;5027934;28;20413;-68